createdAt,value
2019-05-01T00:04:21.873Z,76.90
2019-05-01T00:09:51.403Z,77.10
2019-05-01T00:15:23.183Z,77.20
2019-05-01T00:20:52.500Z,77.40
2019-05-01T00:26:21.799Z,77.50
2019-05-01T00:31:51.139Z,77.70
2019-05-01T00:37:20.455Z,77.90
2019-05-01T00:42:49.804Z,78.40
2019-05-01T00:48:19.579Z,78.10
2019-05-01T00:53:50.401Z,78.30
2019-05-01T00:59:21.769Z,78.40
2019-05-01T01:04:51.246Z,78.60
2019-05-01T01:10:21.857Z,78.70
2019-05-01T01:15:51.187Z,78.80
2019-05-01T01:21:20.535Z,78.90
2019-05-01T01:26:50.078Z,79.10
2019-05-01T01:32:19.542Z,79.30
2019-05-01T01:37:48.894Z,79.30
2019-05-01T01:43:36.572Z,79.40
2019-05-01T01:49:06.029Z,79.60
2019-05-01T01:54:35.559Z,79.60
2019-05-01T02:00:08.336Z,79.80
2019-05-01T02:05:39.553Z,79.80
2019-05-01T02:11:09.193Z,80.00
2019-05-01T02:16:38.630Z,80.10
2019-05-01T02:22:08.150Z,80.10
2019-05-01T02:27:39.221Z,80.20
2019-05-01T02:33:09.159Z,80.40
2019-05-01T02:38:40.865Z,80.40
2019-05-01T02:44:14.219Z,81.20
2019-05-01T02:49:53.328Z,80.60
2019-05-01T02:55:27.258Z,80.70
2019-05-01T03:00:56.785Z,80.80
2019-05-01T03:06:29.222Z,80.90
2019-05-01T03:12:01.043Z,81.00
2019-05-01T03:17:47.492Z,81.60
2019-05-01T03:23:31.490Z,81.20
2019-05-01T03:29:01.035Z,81.30
2019-05-01T03:34:30.684Z,81.40
2019-05-01T03:40:00.169Z,81.40
2019-05-01T03:45:33.747Z,81.50
2019-05-01T03:51:01.115Z,81.60
2019-05-01T03:56:30.660Z,81.60
2019-05-01T04:02:04.702Z,81.80
2019-05-01T04:07:36.503Z,81.90
2019-05-01T04:13:05.446Z,82.00
2019-05-01T04:18:35.943Z,82.00
2019-05-01T04:24:05.518Z,82.10
2019-05-01T04:29:45.130Z,82.10
2019-05-01T04:35:22.195Z,82.30
2019-05-01T04:40:51.640Z,82.40
2019-05-01T04:46:21.191Z,82.30
2019-05-01T04:51:50.659Z,82.30
2019-05-01T04:57:20.125Z,82.20
2019-05-01T05:03:06.187Z,82.30
2019-05-01T05:08:35.577Z,82.20
2019-05-01T05:14:09.739Z,82.10
2019-05-01T05:19:39.890Z,82.00
2019-05-01T05:25:09.351Z,81.90
2019-05-01T05:30:41.107Z,81.90
2019-05-01T05:36:11.963Z,81.70
2019-05-01T05:41:42.811Z,81.60
2019-05-01T05:47:12.335Z,81.40
2019-05-01T05:58:35.179Z,80.80
2019-05-01T06:04:14.835Z,80.70
2019-05-01T06:09:55.116Z,80.20
2019-05-01T06:15:41.157Z,79.80
2019-05-01T06:21:13.001Z,79.30
2019-05-01T06:26:43.222Z,78.40
2019-05-01T06:32:12.502Z,77.70
2019-05-01T06:38:04.536Z,77.30
2019-05-01T06:43:47.769Z,76.60
2019-05-01T06:49:29.393Z,75.10
2019-05-01T06:54:57.456Z,74.10
2019-05-01T07:00:26.802Z,73.40
2019-05-01T07:05:56.356Z,73.10
2019-05-01T07:11:26.178Z,72.10
2019-05-01T07:16:56.112Z,70.90
2019-05-01T07:22:26.006Z,71.00
2019-05-01T07:27:58.586Z,69.30
2019-05-01T07:33:26.708Z,69.20
2019-05-01T07:38:56.121Z,68.60
2019-05-01T07:44:39.467Z,67.80
2019-05-01T07:50:16.088Z,67.30
2019-05-01T07:55:48.641Z,66.10
2019-05-01T08:01:27.485Z,65.70
2019-05-01T08:06:57.554Z,64.90
2019-05-01T08:12:28.024Z,64.20
2019-05-01T08:17:58.941Z,62.80
2019-05-01T08:23:28.694Z,62.30
2019-05-01T08:29:03.045Z,61.40
2019-05-01T08:34:32.308Z,61.00
2019-05-01T08:40:02.537Z,59.30
2019-05-01T08:45:35.788Z,59.30
2019-05-01T08:51:04.669Z,58.50
2019-05-01T08:56:33.965Z,57.80
2019-05-01T09:02:09.534Z,56.80
2019-05-01T09:07:34.488Z,56.20
2019-05-01T09:13:03.798Z,54.70
2019-05-01T09:18:33.092Z,54.60
2019-05-01T09:24:02.541Z,54.20
2019-05-01T09:29:33.469Z,51.00
2019-05-01T09:35:15.090Z,50.90
2019-05-01T09:40:33.909Z,51.40
2019-05-01T09:46:03.748Z,49.90
2019-05-01T09:51:52.096Z,49.10
2019-05-01T09:57:21.662Z,49.90
2019-05-01T10:02:50.938Z,49.50
2019-05-01T10:08:21.152Z,49.00
2019-05-01T10:13:53.647Z,47.90
2019-05-01T10:19:21.444Z,47.20
2019-05-01T10:24:50.735Z,47.00
2019-05-01T10:30:38.024Z,46.80
2019-05-01T10:36:18.733Z,46.80
2019-05-01T10:41:46.453Z,44.60
2019-05-01T10:47:17.138Z,45.10
2019-05-01T10:52:46.421Z,45.80
2019-05-01T10:58:18.281Z,45.30
2019-05-01T11:03:46.842Z,43.70
2019-05-01T11:09:16.207Z,42.30
2019-05-01T11:14:45.480Z,42.20
2019-05-01T11:20:16.054Z,42.60
2019-05-01T11:25:45.333Z,43.80
2019-05-01T11:31:16.259Z,43.40
2019-05-01T11:36:50.069Z,42.70
2019-05-01T11:42:19.486Z,43.10
2019-05-01T11:47:48.756Z,42.40
2019-05-01T11:59:03.881Z,41.30
2019-05-01T12:04:33.094Z,40.30
2019-05-01T12:10:14.419Z,41.80
2019-05-01T12:15:45.423Z,41.00
2019-05-01T12:21:14.726Z,40.70
2019-05-01T12:26:44.037Z,40.10
2019-05-01T12:32:13.306Z,38.40
2019-05-01T12:37:43.154Z,39.20
2019-05-01T12:43:12.500Z,37.00
2019-05-01T12:48:42.332Z,38.00
2019-05-01T12:54:13.529Z,35.90
2019-05-01T12:59:42.800Z,36.10
2019-05-01T13:05:12.283Z,36.70
2019-05-01T13:10:41.811Z,35.50
2019-05-01T13:16:11.107Z,36.50
2019-05-01T13:21:40.394Z,35.50
2019-05-01T13:27:13.982Z,36.70
2019-05-01T13:32:48.185Z,36.40
2019-05-01T13:38:17.472Z,35.60
2019-05-01T13:43:46.748Z,36.70
2019-05-01T13:49:16.325Z,37.00
2019-05-01T13:54:45.629Z,35.80
2019-05-01T14:00:16.022Z,35.60
2019-05-01T14:05:45.322Z,35.60
2019-05-01T14:11:14.630Z,35.60
2019-05-01T14:16:44.102Z,35.10
2019-05-01T14:22:31.219Z,35.70
2019-05-01T14:28:00.588Z,36.30
2019-05-01T14:33:30.211Z,36.30
2019-05-01T14:38:59.495Z,36.60
2019-05-01T14:44:36.461Z,36.30
2019-05-01T14:49:59.996Z,34.40
2019-05-01T14:55:29.314Z,32.80
2019-05-01T15:01:00.612Z,33.70
2019-05-01T15:06:30.043Z,31.70
2019-05-01T15:11:59.529Z,32.80
2019-05-01T15:17:30.459Z,34.20
2019-05-01T15:22:59.749Z,35.40
2019-05-01T15:28:30.296Z,35.90
2019-05-01T15:33:59.942Z,36.80
2019-05-01T15:39:30.859Z,36.30
2019-05-01T15:45:00.258Z,36.30
2019-05-01T15:50:30.531Z,34.10
2019-05-01T15:56:00.380Z,35.00
2019-05-01T16:01:30.006Z,35.70
2019-05-01T16:17:20.634Z,38.00
2019-05-01T16:23:11.183Z,37.30
2019-05-01T16:28:40.675Z,37.50
2019-05-01T16:34:10.355Z,38.60
2019-05-01T16:39:47.197Z,38.50
2019-05-01T16:45:17.201Z,39.10
2019-05-01T16:50:46.890Z,38.50
2019-05-01T16:56:16.677Z,38.40
2019-05-01T17:01:48.388Z,39.20
2019-05-01T17:07:19.755Z,39.50
2019-05-01T17:12:52.720Z,39.90
2019-05-01T17:18:22.513Z,39.80
2019-05-01T17:23:54.967Z,40.10
2019-05-01T17:29:26.997Z,40.70
2019-05-01T17:35:01.894Z,40.30
2019-05-01T17:40:31.982Z,40.00
2019-05-01T17:46:01.401Z,40.50
2019-05-01T17:51:33.023Z,40.90
2019-05-01T17:57:27.608Z,41.00
2019-05-01T18:02:59.370Z,41.20
2019-05-01T18:08:28.853Z,41.10
2019-05-01T18:14:11.583Z,41.60
2019-05-01T18:19:43.773Z,41.90
2019-05-01T18:25:28.239Z,42.00
2019-05-01T18:30:56.723Z,42.60
2019-05-01T18:36:38.078Z,43.00
2019-05-01T18:42:12.196Z,43.30
2019-05-01T18:47:41.988Z,43.70
2019-05-01T18:53:12.652Z,44.80
2019-05-01T18:58:42.718Z,45.60
2019-05-01T19:04:18.408Z,46.00
2019-05-01T19:09:48.378Z,46.30
2019-05-01T19:15:21.585Z,47.10
2019-05-01T19:20:59.343Z,47.80
2019-05-01T19:26:26.712Z,48.40
2019-05-01T19:32:08.926Z,48.80
2019-05-01T19:37:38.821Z,48.90
2019-05-01T19:43:08.877Z,49.20
2019-05-01T19:48:38.991Z,49.70
2019-05-01T19:54:09.120Z,50.60
2019-05-01T19:59:38.848Z,51.00
2019-05-01T20:05:11.305Z,51.70
2019-05-01T20:10:42.450Z,52.20
2019-05-01T20:16:13.110Z,52.60
2019-05-01T20:21:44.182Z,53.10
2019-05-01T20:27:14.596Z,53.30
2019-05-01T20:32:50.293Z,53.50
2019-05-01T20:38:20.632Z,53.80
2019-05-01T20:43:50.478Z,54.00
2019-05-01T20:49:24.235Z,54.70
2019-05-01T20:54:53.857Z,55.00
2019-05-01T21:00:25.164Z,55.30
2019-05-01T21:06:02.885Z,55.80
2019-05-01T21:11:31.894Z,55.90
2019-05-01T21:17:01.545Z,56.20
2019-05-01T21:22:33.387Z,56.80
2019-05-01T21:28:04.167Z,57.30
2019-05-01T21:33:34.131Z,57.50
2019-05-01T21:39:05.493Z,58.00
2019-05-01T21:44:35.120Z,58.30
2019-05-01T21:50:04.957Z,59.40
2019-05-01T21:55:34.544Z,59.50
2019-05-01T22:01:13.062Z,59.70
2019-05-01T22:06:46.921Z,59.90
2019-05-01T22:12:14.504Z,60.20
2019-05-01T22:18:00.491Z,60.40
2019-05-01T22:23:31.697Z,60.50
2019-05-01T22:29:02.777Z,60.60
2019-05-01T22:34:46.408Z,60.70
2019-05-01T22:40:17.982Z,60.70
2019-05-01T22:45:48.331Z,61.30
2019-05-01T22:51:19.600Z,60.80
2019-05-01T22:56:49.295Z,60.70
2019-05-01T23:02:24.141Z,60.80
2019-05-01T23:07:57.041Z,60.80
2019-05-01T23:13:25.889Z,61.00
2019-05-01T23:18:55.598Z,61.20
2019-05-01T23:24:25.198Z,61.60
2019-05-01T23:29:54.590Z,61.70
2019-05-01T23:35:24.279Z,61.80
2019-05-01T23:40:53.970Z,62.00
2019-05-01T23:46:24.356Z,62.20
2019-05-01T23:51:53.904Z,62.20
2019-05-01T23:57:23.318Z,62.50
